createdAt,value
2018-03-15T00:00:12.997Z,15.27
2018-03-15T00:02:40.464Z,15.07
2018-03-15T00:05:07.957Z,14.93
2018-03-15T00:07:35.416Z,14.30
2018-03-15T00:10:02.901Z,14.90
2018-03-15T00:12:30.364Z,14.67
2018-03-15T00:14:57.855Z,14.83
2018-03-15T00:17:25.307Z,15.13
2018-03-15T00:19:52.787Z,15.67
2018-03-15T00:22:20.246Z,14.50
2018-03-15T00:24:47.745Z,15.13
2018-03-15T00:27:15.227Z,13.80
2018-03-15T00:29:42.703Z,14.77
2018-03-15T00:32:10.175Z,14.43
2018-03-15T00:34:37.654Z,13.90
2018-03-15T00:37:05.110Z,14.83
2018-03-15T00:39:32.596Z,15.67
2018-03-15T00:42:00.063Z,14.63
2018-03-15T00:44:27.552Z,14.27
2018-03-15T00:46:55.008Z,14.47
2018-03-15T00:49:22.479Z,14.40
2018-03-15T00:51:49.959Z,15.57
2018-03-15T00:54:17.427Z,14.20
2018-03-15T00:56:44.938Z,14.60
2018-03-15T00:59:12.397Z,15.17
2018-03-15T01:01:39.894Z,14.70
2018-03-15T01:04:07.361Z,14.67
2018-03-15T01:06:34.841Z,14.23
2018-03-15T01:09:02.303Z,14.53
2018-03-15T01:11:29.786Z,15.03
2018-03-15T01:13:57.251Z,14.40
2018-03-15T01:16:24.730Z,14.60
2018-03-15T01:18:52.192Z,14.80
2018-03-15T01:21:19.686Z,14.53
2018-03-15T01:23:47.156Z,15.70
2018-03-15T01:26:14.639Z,15.20
2018-03-15T01:28:42.103Z,15.13
2018-03-15T01:31:09.595Z,15.60
2018-03-15T01:33:37.058Z,15.03
2018-03-15T01:36:04.543Z,15.27
2018-03-15T01:38:31.999Z,15.93
2018-03-15T01:40:59.483Z,15.13
2018-03-15T01:43:26.945Z,15.93
2018-03-15T01:45:54.428Z,16.10
2018-03-15T01:48:21.900Z,14.83
2018-03-15T01:50:49.384Z,15.23
2018-03-15T01:53:16.855Z,15.57
2018-03-15T01:55:44.335Z,15.27
2018-03-15T01:58:11.796Z,16.17
2018-03-15T02:00:39.323Z,15.67
2018-03-15T02:03:06.759Z,15.80
2018-03-15T02:05:34.238Z,14.83
2018-03-15T02:08:01.708Z,16.03
2018-03-15T02:10:29.190Z,15.63
2018-03-15T02:12:56.684Z,15.13
2018-03-15T02:15:24.140Z,15.53
2018-03-15T02:17:51.631Z,15.13
2018-03-15T02:20:19.087Z,15.40
2018-03-15T02:22:46.563Z,15.33
2018-03-15T02:25:14.048Z,15.60
2018-03-15T02:27:41.706Z,15.53
2018-03-15T02:30:09.231Z,16.23
2018-03-15T02:32:36.810Z,16.00
2018-03-15T02:35:04.326Z,16.80
2018-03-15T02:37:33.382Z,15.77
2018-03-15T02:40:00.951Z,15.33
2018-03-15T02:42:31.460Z,15.83
2018-03-15T02:44:59.149Z,14.70
2018-03-15T02:47:31.231Z,15.10
2018-03-15T02:50:00.178Z,15.40
2018-03-15T02:52:27.993Z,15.00
2018-03-15T02:54:55.676Z,14.27
2018-03-15T02:57:36.308Z,14.43
2018-03-15T03:00:07.647Z,14.83
2018-03-15T03:02:42.105Z,15.20
2018-03-15T03:05:09.841Z,14.40
2018-03-15T03:07:39.760Z,14.17
2018-03-15T03:10:09.674Z,14.17
2018-03-15T03:12:39.011Z,15.17
2018-03-15T03:15:07.504Z,14.80
2018-03-15T03:17:35.750Z,14.57
2018-03-15T03:20:03.468Z,14.30
2018-03-15T03:22:30.960Z,13.63
2018-03-15T03:24:58.427Z,13.87
2018-03-15T03:27:25.922Z,14.90
2018-03-15T03:29:53.390Z,13.77
2018-03-15T03:32:20.879Z,13.97
2018-03-15T03:34:48.339Z,14.30
2018-03-15T03:37:15.823Z,14.33
2018-03-15T03:39:43.278Z,14.43
2018-03-15T03:42:10.779Z,15.10
2018-03-15T03:44:38.236Z,14.17
2018-03-15T03:47:05.723Z,13.20
2018-03-15T03:49:33.178Z,13.63
2018-03-15T03:52:00.651Z,14.60
2018-03-15T03:54:28.107Z,15.00
2018-03-15T03:56:55.585Z,13.80
2018-03-15T03:59:23.060Z,13.67
2018-03-15T04:01:50.540Z,13.27
2018-03-15T04:04:18.021Z,13.20
2018-03-15T04:06:45.480Z,12.77
2018-03-15T04:09:12.956Z,13.73
2018-03-15T04:11:40.423Z,13.03
2018-03-15T04:14:07.911Z,13.13
2018-03-15T04:16:35.366Z,13.30
2018-03-15T04:19:02.855Z,12.80
2018-03-15T04:21:30.320Z,13.57
2018-03-15T04:23:57.803Z,13.23
2018-03-15T04:26:25.258Z,14.03
2018-03-15T04:28:52.748Z,12.83
2018-03-15T04:31:20.206Z,13.13
2018-03-15T04:33:47.683Z,12.90
2018-03-15T04:36:15.155Z,13.40
2018-03-15T04:38:42.639Z,12.80
2018-03-15T04:41:10.099Z,13.63
2018-03-15T04:43:37.579Z,14.50
2018-03-15T04:46:05.037Z,13.53
2018-03-15T04:48:32.515Z,13.07
2018-03-15T04:50:59.984Z,13.17
2018-03-15T04:53:27.464Z,13.77
2018-03-15T04:55:54.915Z,13.57
2018-03-15T04:58:22.425Z,13.73
2018-03-15T05:00:49.875Z,13.97
2018-03-15T05:03:17.355Z,14.30
2018-03-15T05:05:44.838Z,13.83
2018-03-15T05:08:12.319Z,14.03
2018-03-15T05:10:39.831Z,14.00
2018-03-15T05:13:07.315Z,13.40
2018-03-15T05:15:36.176Z,14.60
2018-03-15T05:18:03.685Z,14.23
2018-03-15T05:20:31.144Z,14.20
2018-03-15T05:22:58.619Z,14.33
2018-03-15T05:25:26.080Z,13.47
2018-03-15T05:27:53.536Z,14.10
2018-03-15T05:30:21.035Z,14.50
2018-03-15T05:32:48.495Z,13.10
2018-03-15T05:35:15.976Z,13.97
2018-03-15T05:37:43.435Z,13.70
2018-03-15T05:40:11.099Z,13.57
2018-03-15T05:42:38.563Z,14.90
2018-03-15T05:45:06.039Z,14.60
2018-03-15T05:47:33.504Z,14.30
2018-03-15T05:50:00.999Z,14.53
2018-03-15T05:52:28.897Z,14.23
2018-03-15T05:54:56.366Z,15.07
2018-03-15T05:57:23.838Z,14.73
2018-03-15T05:59:51.320Z,15.17
2018-03-15T06:02:18.788Z,14.67
2018-03-15T06:04:46.268Z,14.37
2018-03-15T06:07:13.745Z,15.00
2018-03-15T06:09:42.136Z,14.70
2018-03-15T06:12:09.599Z,15.47
2018-03-15T06:14:37.084Z,14.73
2018-03-15T06:17:04.539Z,14.07
2018-03-15T06:19:32.023Z,14.93
2018-03-15T06:21:59.478Z,15.13
2018-03-15T06:24:26.963Z,15.20
2018-03-15T06:26:54.425Z,15.17
2018-03-15T06:29:21.918Z,15.00
2018-03-15T06:31:49.383Z,13.97
2018-03-15T06:34:16.869Z,14.63
2018-03-15T06:36:44.327Z,14.90
2018-03-15T06:39:11.817Z,14.43
2018-03-15T06:41:39.278Z,15.30
2018-03-15T06:44:06.759Z,15.93
2018-03-15T06:46:34.224Z,14.53
2018-03-15T06:49:01.684Z,15.13
2018-03-15T06:51:29.158Z,15.13
2018-03-15T06:53:56.623Z,15.33
2018-03-15T06:56:24.225Z,14.37
2018-03-15T06:58:51.682Z,14.57
2018-03-15T07:01:19.159Z,15.70
2018-03-15T07:03:46.637Z,15.60
2018-03-15T07:06:14.117Z,15.50
2018-03-15T07:08:41.624Z,15.63
2018-03-15T07:11:09.113Z,15.17
2018-03-15T07:13:36.571Z,15.07
2018-03-15T07:16:04.051Z,15.93
2018-03-15T07:18:31.508Z,14.07
2018-03-15T07:20:59.003Z,14.90
2018-03-15T07:23:26.470Z,14.97
2018-03-15T07:25:53.951Z,15.80
2018-03-15T07:28:21.407Z,15.50
2018-03-15T07:30:48.891Z,16.50
2018-03-15T07:33:16.356Z,16.03
2018-03-15T07:35:43.851Z,16.80
2018-03-15T07:38:11.321Z,15.17
2018-03-15T07:40:38.799Z,15.73
2018-03-15T07:43:06.271Z,15.63
2018-03-15T07:45:33.771Z,16.00
2018-03-15T07:48:01.232Z,15.00
2018-03-15T07:50:28.724Z,15.23
2018-03-15T07:52:56.199Z,15.30
2018-03-15T07:55:23.680Z,15.17
2018-03-15T07:57:51.139Z,14.63
2018-03-15T08:00:18.635Z,16.30
2018-03-15T08:02:46.093Z,15.80
2018-03-15T08:05:13.581Z,16.07
2018-03-15T08:07:41.048Z,15.00
2018-03-15T08:10:08.511Z,16.70
2018-03-15T08:12:35.986Z,15.33
2018-03-15T08:15:03.446Z,17.13
2018-03-15T08:17:30.932Z,15.20
2018-03-15T08:19:58.396Z,15.20
2018-03-15T08:22:25.878Z,15.60
2018-03-15T08:24:53.342Z,15.47
2018-03-15T08:27:20.840Z,15.07
2018-03-15T08:29:48.299Z,14.80
2018-03-15T08:32:15.779Z,14.47
2018-03-15T08:34:43.241Z,13.57
2018-03-15T08:37:10.728Z,14.23
2018-03-15T08:39:38.232Z,14.00
2018-03-15T08:42:05.687Z,15.00
2018-03-15T08:44:33.155Z,13.80
2018-03-15T08:47:00.647Z,13.90
2018-03-15T08:49:28.136Z,14.20
2018-03-15T08:51:55.627Z,14.27
2018-03-15T08:54:23.083Z,13.53
2018-03-15T08:56:50.562Z,14.47
2018-03-15T08:59:18.023Z,13.37
2018-03-15T09:01:45.503Z,14.30
2018-03-15T09:04:13.750Z,13.97
2018-03-15T09:06:41.360Z,14.70
2018-03-15T09:09:08.840Z,12.73
2018-03-15T09:11:36.328Z,13.27
2018-03-15T09:14:03.788Z,12.90
2018-03-15T09:16:31.272Z,13.60
2018-03-15T09:18:58.758Z,10.40
2018-03-15T09:21:26.305Z,13.20
2018-03-15T09:23:53.768Z,12.70
2018-03-15T09:26:21.243Z,12.90
2018-03-15T09:28:48.698Z,13.33
2018-03-15T09:31:16.187Z,12.53
2018-03-15T09:33:43.660Z,13.00
2018-03-15T09:36:11.195Z,12.57
2018-03-15T09:38:38.683Z,12.10
2018-03-15T09:41:06.160Z,12.33
2018-03-15T09:43:33.684Z,12.23
2018-03-15T09:46:01.180Z,12.30
2018-03-15T09:48:28.671Z,11.40
2018-03-15T09:50:56.159Z,11.27
2018-03-15T09:53:23.660Z,12.33
2018-03-15T09:55:51.154Z,11.93
2018-03-15T09:58:18.651Z,12.37
2018-03-15T10:00:46.135Z,12.13
2018-03-15T10:03:13.633Z,11.10
2018-03-15T10:05:41.146Z,11.30
2018-03-15T10:08:09.527Z,11.77
2018-03-15T10:10:36.990Z,11.50
2018-03-15T10:13:05.146Z,11.27
2018-03-15T10:15:32.667Z,11.00
2018-03-15T10:18:00.167Z,11.17
2018-03-15T10:20:27.655Z,11.50
2018-03-15T10:22:55.158Z,11.47
2018-03-15T10:25:26.394Z,10.67
2018-03-15T10:27:50.142Z,10.90
2018-03-15T10:30:17.622Z,11.33
2018-03-15T10:32:45.172Z,11.20
2018-03-15T10:35:18.244Z,11.47
2018-03-15T10:37:45.815Z,10.90
2018-03-15T10:40:13.308Z,11.37
2018-03-15T10:42:40.808Z,11.23
2018-03-15T10:45:08.295Z,10.20
2018-03-15T10:47:35.791Z,11.80
2018-03-15T10:50:03.282Z,9.93
2018-03-15T10:52:31.432Z,10.97
2018-03-15T10:54:58.912Z,11.77
2018-03-15T10:57:26.407Z,10.10
2018-03-15T10:59:53.991Z,10.53
2018-03-15T11:02:21.439Z,11.53
2018-03-15T11:04:54.611Z,10.90
2018-03-15T11:07:27.736Z,9.97
2018-03-15T11:09:55.210Z,9.90
2018-03-15T11:12:22.687Z,9.87
2018-03-15T11:14:50.181Z,8.30
2018-03-15T11:17:17.659Z,10.20
2018-03-15T11:19:45.163Z,10.30
2018-03-15T11:22:12.680Z,9.73
2018-03-15T11:24:40.191Z,10.07
2018-03-15T11:27:07.680Z,9.50
2018-03-15T11:29:35.184Z,10.33
2018-03-15T11:32:02.675Z,9.60
2018-03-15T11:34:30.363Z,7.97
2018-03-15T11:36:57.836Z,9.60
2018-03-15T11:39:25.342Z,9.27
2018-03-15T11:41:53.631Z,10.30
2018-03-15T11:44:21.957Z,9.30
2018-03-15T11:46:50.351Z,10.87
2018-03-15T11:49:17.856Z,10.07
2018-03-15T11:51:45.606Z,10.03
2018-03-15T11:54:13.348Z,10.23
2018-03-15T11:56:40.826Z,9.67
2018-03-15T11:59:08.323Z,9.57
2018-03-15T12:01:35.816Z,11.53
2018-03-15T12:04:03.317Z,10.67
2018-03-15T12:06:30.800Z,9.37
2018-03-15T12:08:58.321Z,10.30
2018-03-15T12:11:25.809Z,9.77
2018-03-15T12:13:53.318Z,9.80
2018-03-15T12:22:12.359Z,9.73
2018-03-15T12:24:39.844Z,9.87
2018-03-15T12:27:07.310Z,9.73
2018-03-15T12:29:34.803Z,9.00
2018-03-15T12:32:02.259Z,9.23
2018-03-15T12:34:29.761Z,9.30
2018-03-15T12:36:57.227Z,9.23
2018-03-15T12:39:24.703Z,8.90
2018-03-15T12:41:52.165Z,8.43
2018-03-15T12:44:19.647Z,8.03
2018-03-15T12:46:47.103Z,8.37
2018-03-15T12:51:48.275Z,8.17
2018-03-15T12:54:15.752Z,8.33
2018-03-15T12:56:43.250Z,8.50
2018-03-15T12:59:10.727Z,8.63
2018-03-15T13:01:38.191Z,8.47
2018-03-15T13:04:05.689Z,7.40
2018-03-15T13:06:33.145Z,7.87
2018-03-15T13:09:00.603Z,7.97
2018-03-15T13:11:28.082Z,7.20
2018-03-15T13:13:55.546Z,6.97
2018-03-15T13:16:23.031Z,7.10
2018-03-15T13:18:51.412Z,7.30
2018-03-15T13:21:18.888Z,6.90
2018-03-15T13:23:46.335Z,7.07
2018-03-15T13:26:13.981Z,7.70
2018-03-15T13:28:46.024Z,6.90
2018-03-15T13:31:13.506Z,7.37
2018-03-15T13:33:40.963Z,7.50
2018-03-15T13:36:08.446Z,7.07
2018-03-15T13:38:35.919Z,6.87
2018-03-15T13:41:03.402Z,6.77
2018-03-15T13:43:30.879Z,6.97
2018-03-15T13:45:58.360Z,6.87
2018-03-15T13:48:25.864Z,6.30
2018-03-15T13:50:53.319Z,6.10
2018-03-15T13:53:20.771Z,6.10
2018-03-15T13:55:48.251Z,5.63
2018-03-15T13:58:16.281Z,5.77
2018-03-15T14:00:43.778Z,6.47
2018-03-15T14:03:11.227Z,6.00
2018-03-15T14:08:33.107Z,6.33
2018-03-15T14:11:04.430Z,6.68
2018-03-15T14:13:35.251Z,5.80
2018-03-15T14:16:04.470Z,5.77
2018-03-15T14:18:36.496Z,6.03
2018-03-15T14:21:05.701Z,5.43
2018-03-15T14:23:35.486Z,6.57
2018-03-15T14:26:04.685Z,6.37
2018-03-15T14:28:33.056Z,5.37
2018-03-15T14:31:02.104Z,6.10
2018-03-15T14:33:30.849Z,5.80
2018-03-15T14:35:58.881Z,6.30
2018-03-15T14:38:28.225Z,6.07
2018-03-15T14:40:55.766Z,5.60
2018-03-15T14:43:23.216Z,5.77
2018-03-15T14:45:51.134Z,6.23
2018-03-15T14:48:19.889Z,5.97
2018-03-15T14:50:50.301Z,6.30
2018-03-15T14:53:17.790Z,6.63
2018-03-15T14:55:45.266Z,6.00
2018-03-15T14:58:12.722Z,6.07
2018-03-15T15:00:40.204Z,5.90
2018-03-15T15:03:07.658Z,6.33
2018-03-15T15:05:35.114Z,6.33
2018-03-15T15:08:02.592Z,6.37
2018-03-15T15:10:30.090Z,6.20
2018-03-15T15:12:57.568Z,6.63
2018-03-15T15:15:25.035Z,6.27
2018-03-15T15:17:52.511Z,6.50
2018-03-15T15:20:19.967Z,6.20
2018-03-15T15:22:47.441Z,6.20
2018-03-15T15:25:14.902Z,6.53
2018-03-15T15:27:42.367Z,6.33
2018-03-15T15:30:09.824Z,7.03
2018-03-15T15:32:37.308Z,6.27
2018-03-15T15:35:04.763Z,6.20
2018-03-15T15:37:32.236Z,6.47
2018-03-15T15:39:59.687Z,6.53
2018-03-15T15:42:27.179Z,6.60
2018-03-15T15:44:54.643Z,6.33
2018-03-15T15:47:22.143Z,6.00
2018-03-15T15:49:49.608Z,6.70
2018-03-15T15:52:17.087Z,6.57
2018-03-15T15:54:44.559Z,6.30
2018-03-15T15:57:12.055Z,6.93
2018-03-15T15:59:39.545Z,6.57
2018-03-15T16:02:07.054Z,6.53
2018-03-15T16:04:34.531Z,6.33
2018-03-15T16:07:02.012Z,6.33
2018-03-15T16:09:29.490Z,6.27
2018-03-15T16:11:56.977Z,6.17
2018-03-15T16:14:24.453Z,6.70
2018-03-15T16:16:51.952Z,5.90
2018-03-15T16:19:19.419Z,7.00
2018-03-15T16:21:46.895Z,6.77
2018-03-15T16:24:14.350Z,6.57
2018-03-15T16:26:41.850Z,6.47
2018-03-15T16:29:09.313Z,6.83
2018-03-15T16:31:36.772Z,6.80
2018-03-15T16:34:04.251Z,6.80
2018-03-15T16:36:31.703Z,6.50
2018-03-15T16:38:59.179Z,6.37
2018-03-15T16:41:26.635Z,6.30
2018-03-15T16:43:54.124Z,6.93
2018-03-15T16:46:21.581Z,6.77
2018-03-15T16:48:49.051Z,6.57
2018-03-15T16:51:16.501Z,6.67
2018-03-15T16:53:43.972Z,6.43
2018-03-15T16:56:11.419Z,6.00
2018-03-15T16:58:39.226Z,6.57
2018-03-15T17:01:06.682Z,6.97
2018-03-15T17:03:34.166Z,6.30
2018-03-15T17:06:01.635Z,6.13
2018-03-15T17:08:29.118Z,6.30
2018-03-15T17:10:56.577Z,6.30
2018-03-15T17:13:24.047Z,6.50
2018-03-15T17:15:51.500Z,6.50
2018-03-15T17:18:18.971Z,5.60
2018-03-15T17:20:46.441Z,6.27
2018-03-15T17:23:13.914Z,5.67
2018-03-15T17:25:41.375Z,5.87
2018-03-15T17:28:08.859Z,6.00
2018-03-15T17:30:36.326Z,5.80
2018-03-15T17:33:03.812Z,5.87
2018-03-15T17:35:31.267Z,6.27
2018-03-15T17:37:58.744Z,6.07
2018-03-15T17:40:26.204Z,6.87
2018-03-15T17:42:53.675Z,5.83
2018-03-15T17:45:21.120Z,5.50
2018-03-15T17:47:48.626Z,7.10
2018-03-15T17:50:16.088Z,7.10
2018-03-15T17:52:43.584Z,7.60
2018-03-15T17:55:11.054Z,7.07
2018-03-15T17:57:38.503Z,7.60
2018-03-15T18:00:05.971Z,8.40
2018-03-15T18:02:33.423Z,8.43
2018-03-15T18:05:00.899Z,9.10
2018-03-15T18:07:28.379Z,8.87
2018-03-15T18:09:55.872Z,8.47
2018-03-15T18:12:23.335Z,8.67
2018-03-15T18:14:50.818Z,9.53
2018-03-15T18:17:18.284Z,9.10
2018-03-15T18:19:45.759Z,9.87
2018-03-15T18:22:13.286Z,10.30
2018-03-15T18:24:40.762Z,10.50
2018-03-15T18:27:08.215Z,9.73
2018-03-15T18:29:35.746Z,10.90
2018-03-15T18:32:03.204Z,10.00
2018-03-15T18:34:30.711Z,10.33
2018-03-15T18:36:58.191Z,10.47
2018-03-15T18:39:25.665Z,10.00
2018-03-15T18:41:53.139Z,10.27
2018-03-15T18:44:20.642Z,10.50
2018-03-15T18:46:48.095Z,10.37
2018-03-15T18:49:15.577Z,11.00
2018-03-15T18:51:43.046Z,10.40
2018-03-15T18:54:10.531Z,11.63
2018-03-15T18:56:38.016Z,10.30
2018-03-15T18:59:05.546Z,11.63
2018-03-15T19:01:32.976Z,10.70
2018-03-15T19:04:00.452Z,10.53
2018-03-15T19:06:27.917Z,10.60
2018-03-15T19:08:55.396Z,11.60
2018-03-15T19:11:22.972Z,11.60
2018-03-15T19:13:50.462Z,11.83
2018-03-15T19:16:17.926Z,12.60
2018-03-15T19:18:45.403Z,13.57
2018-03-15T19:21:12.937Z,13.23
2018-03-15T19:23:40.412Z,14.37
2018-03-15T19:26:07.908Z,13.47
2018-03-15T19:28:35.366Z,13.27
2018-03-15T19:31:02.854Z,12.93
2018-03-15T19:33:30.314Z,12.87
2018-03-15T19:35:57.800Z,13.47
2018-03-15T19:38:25.297Z,12.97
2018-03-15T19:40:52.790Z,13.23
2018-03-15T19:43:20.253Z,13.53
2018-03-15T19:45:47.747Z,14.03
2018-03-15T19:48:15.203Z,12.67
2018-03-15T19:50:42.699Z,12.00
2018-03-15T19:53:10.166Z,12.97
2018-03-15T19:55:37.648Z,13.20
2018-03-15T19:58:05.119Z,13.00
2018-03-15T20:00:32.612Z,12.77
2018-03-15T20:03:00.075Z,12.57
2018-03-15T20:05:27.555Z,12.97
2018-03-15T20:07:55.033Z,13.03
2018-03-15T20:10:22.526Z,13.17
2018-03-15T20:12:50.047Z,12.97
2018-03-15T20:15:17.508Z,12.13
2018-03-15T20:17:45.827Z,12.67
2018-03-15T20:20:13.349Z,13.40
2018-03-15T20:22:46.309Z,13.67
2018-03-15T20:25:13.794Z,14.10
2018-03-15T20:27:47.746Z,14.17
2018-03-15T20:30:15.227Z,14.23
2018-03-15T20:32:48.319Z,14.50
2018-03-15T20:35:16.298Z,13.80
2018-03-15T20:37:43.772Z,15.30
2018-03-15T20:40:16.916Z,14.00
2018-03-15T20:42:44.372Z,14.63
2018-03-15T20:48:17.725Z,14.00
2018-03-15T20:50:45.211Z,14.30
2018-03-15T20:53:12.686Z,14.07
2018-03-15T20:55:40.188Z,14.47
2018-03-15T20:58:07.643Z,14.03
2018-03-15T21:00:35.131Z,12.97
2018-03-15T21:03:02.591Z,13.90
2018-03-15T21:05:30.101Z,12.77
2018-03-15T21:07:57.556Z,12.93
2018-03-15T21:10:25.046Z,13.33
2018-03-15T21:12:52.503Z,12.23
2018-03-15T21:15:20.004Z,12.47
2018-03-15T21:17:47.466Z,12.53
2018-03-15T21:20:14.926Z,12.73
2018-03-15T21:22:42.407Z,12.07
2018-03-15T21:25:09.889Z,12.87
2018-03-15T21:27:37.388Z,12.07
2018-03-15T21:30:04.865Z,12.83
2018-03-15T21:32:32.348Z,13.00
2018-03-15T21:34:59.807Z,12.40
2018-03-15T21:37:27.292Z,12.60
2018-03-15T21:39:54.754Z,12.60
2018-03-15T21:42:22.235Z,13.93
2018-03-15T21:44:49.704Z,14.83
2018-03-15T21:47:17.209Z,13.60
2018-03-15T21:49:44.677Z,13.80
2018-03-15T21:52:12.159Z,14.37
2018-03-15T21:54:39.624Z,15.87
2018-03-15T21:57:07.115Z,15.13
2018-03-15T21:59:34.576Z,14.87
2018-03-15T22:02:02.066Z,14.63
2018-03-15T22:04:29.523Z,14.70
2018-03-15T22:06:57.045Z,14.60
2018-03-15T22:09:24.532Z,15.10
2018-03-15T22:11:52.019Z,15.50
2018-03-15T22:14:19.519Z,15.17
2018-03-15T22:16:47.002Z,14.97
2018-03-15T22:19:14.476Z,15.27
2018-03-15T22:21:41.959Z,14.33
2018-03-15T22:24:09.419Z,14.47
2018-03-15T22:26:36.916Z,15.23
2018-03-15T22:29:04.379Z,13.87
2018-03-15T22:31:31.869Z,14.57
2018-03-15T22:33:59.339Z,15.30
2018-03-15T22:36:26.811Z,14.67
2018-03-15T22:38:54.276Z,14.30
2018-03-15T22:41:21.826Z,14.77
2018-03-15T22:43:49.318Z,14.90
2018-03-15T22:46:16.796Z,15.73
2018-03-15T22:48:44.344Z,15.30
2018-03-15T22:51:11.812Z,15.43
2018-03-15T22:53:39.316Z,14.20
2018-03-15T22:56:06.779Z,15.87
2018-03-15T22:58:34.262Z,15.87
2018-03-15T23:01:01.724Z,15.17
2018-03-15T23:03:29.256Z,16.00
2018-03-15T23:05:56.724Z,15.80
2018-03-15T23:08:24.208Z,16.60
2018-03-15T23:10:51.668Z,17.17
2018-03-15T23:13:19.148Z,18.90
2018-03-15T23:15:46.604Z,18.77
2018-03-15T23:18:14.103Z,18.77
2018-03-15T23:20:41.576Z,18.27
2018-03-15T23:23:09.059Z,17.83
2018-03-15T23:25:36.543Z,18.70
2018-03-15T23:28:04.029Z,18.13
2018-03-15T23:30:31.487Z,18.93
2018-03-15T23:32:58.972Z,18.70
2018-03-15T23:35:26.439Z,18.80
2018-03-15T23:37:53.919Z,19.03
2018-03-15T23:40:21.378Z,19.23
2018-03-15T23:42:48.865Z,18.80
2018-03-15T23:45:16.324Z,17.83
2018-03-15T23:47:43.807Z,19.33
2018-03-15T23:50:11.284Z,19.63
2018-03-15T23:52:38.763Z,20.50
2018-03-15T23:55:06.240Z,19.40
2018-03-15T23:57:33.717Z,19.97
